createdAt,value
2022-08-05T00:01:28.625Z,7.22
2022-08-05T00:04:33.135Z,7.97
2022-08-05T00:08:00.093Z,8.80
2022-08-05T00:11:04.085Z,6.95
2022-08-05T00:14:12.020Z,6.03
2022-08-05T00:17:20.861Z,7.32
2022-08-05T00:20:28.952Z,5.88
2022-08-05T00:23:46.579Z,10.05
2022-08-05T00:26:57.044Z,5.80
2022-08-05T00:30:03.168Z,7.15
2022-08-05T00:34:41.893Z,5.57
2022-08-05T00:37:13.280Z,11.20
2022-08-05T00:39:58.613Z,9.27
2022-08-05T00:43:07.576Z,10.45
2022-08-05T00:46:14.664Z,8.18
2022-08-05T00:49:20.140Z,9.63
2022-08-05T00:52:28.233Z,9.63
2022-08-05T00:55:42.365Z,8.40
2022-08-05T00:58:46.885Z,11.60
2022-08-05T01:01:54.751Z,13.00
2022-08-05T01:04:59.259Z,10.10
2022-08-05T01:08:40.389Z,12.10
2022-08-05T01:11:37.207Z,13.50
2022-08-05T01:17:56.763Z,10.27
2022-08-05T01:21:12.420Z,11.52
2022-08-05T01:24:52.490Z,8.82
2022-08-05T01:28:16.241Z,8.43
2022-08-05T01:31:27.777Z,6.95
2022-08-05T01:34:38.011Z,7.95
2022-08-05T01:37:50.368Z,12.77
2022-08-05T01:41:00.014Z,8.73
2022-08-05T01:44:09.624Z,11.43
2022-08-05T01:47:18.835Z,10.77
2022-08-05T01:50:29.986Z,13.05
2022-08-05T01:53:57.036Z,9.52
2022-08-05T01:58:29.708Z,9.85
2022-08-05T02:00:30.533Z,9.43
2022-08-05T02:03:38.996Z,16.25
2022-08-05T02:06:45.150Z,11.23
2022-08-05T02:09:50.385Z,11.13
2022-08-05T02:13:01.329Z,10.32
2022-08-05T02:16:27.574Z,12.88
2022-08-05T02:19:35.636Z,8.82
2022-08-05T02:22:58.314Z,9.60
2022-08-05T02:26:07.336Z,6.88
2022-08-05T02:29:21.401Z,13.30
2022-08-05T02:32:31.849Z,10.95
2022-08-05T02:35:44.890Z,12.98
2022-08-05T02:39:02.827Z,13.13
2022-08-05T02:42:08.146Z,9.43
2022-08-05T02:45:14.266Z,12.50
2022-08-05T02:48:29.455Z,8.27
2022-08-05T02:52:03.393Z,10.18
2022-08-05T02:55:05.417Z,11.65
2022-08-05T02:58:15.909Z,7.10
2022-08-05T03:01:24.405Z,10.27
2022-08-05T03:04:29.771Z,9.82
2022-08-05T03:08:00.372Z,5.80
2022-08-05T03:11:53.518Z,8.55
2022-08-05T03:14:22.373Z,9.48
2022-08-05T03:17:26.957Z,9.60
2022-08-05T03:20:31.424Z,6.95
2022-08-05T03:23:43.152Z,9.30
2022-08-05T03:26:49.642Z,7.32
2022-08-05T03:30:07.770Z,9.73
2022-08-05T03:33:13.799Z,12.50
2022-08-05T03:36:29.813Z,9.70
2022-08-05T03:39:47.148Z,8.52
2022-08-05T03:43:16.056Z,9.75
2022-08-05T03:46:24.020Z,7.70
2022-08-05T03:49:51.282Z,7.00
2022-08-05T03:55:00.073Z,8.45
2022-08-05T03:56:42.252Z,12.10
2022-08-05T04:00:09.995Z,8.38
2022-08-05T04:03:28.251Z,8.25
2022-08-05T04:06:34.606Z,11.77
2022-08-05T04:09:38.696Z,10.65
2022-08-05T04:12:59.046Z,8.85
2022-08-05T04:16:04.892Z,7.90
2022-08-05T04:19:12.791Z,8.75
2022-08-05T04:22:20.618Z,8.60
2022-08-05T04:25:56.966Z,11.23
2022-08-05T04:28:51.977Z,9.38
2022-08-05T04:31:56.880Z,7.97
2022-08-05T04:35:01.166Z,11.35
2022-08-05T04:38:06.588Z,12.50
2022-08-05T04:41:11.294Z,7.80
2022-08-05T04:44:16.206Z,13.65
2022-08-05T04:47:38.620Z,10.48
2022-08-05T04:51:01.637Z,10.68
2022-08-05T04:54:14.884Z,9.75
2022-08-05T04:57:18.913Z,12.77
2022-08-05T05:00:23.272Z,8.80
2022-08-05T05:03:28.043Z,9.90
2022-08-05T05:06:49.386Z,11.95
2022-08-05T05:10:05.299Z,12.27
2022-08-05T05:13:12.059Z,8.63
2022-08-05T05:16:17.324Z,10.25
2022-08-05T05:19:27.506Z,9.93
2022-08-05T05:22:44.172Z,8.40
2022-08-05T05:25:48.299Z,8.23
2022-08-05T05:28:52.277Z,13.00
2022-08-05T05:31:56.983Z,8.50
2022-08-05T05:35:00.863Z,10.52
2022-08-05T05:38:09.466Z,10.82
2022-08-05T05:41:18.500Z,11.57
2022-08-05T05:44:36.689Z,13.85
2022-08-05T05:48:06.443Z,13.18
2022-08-05T05:51:14.918Z,8.48
2022-08-05T05:54:20.313Z,8.40
2022-08-05T05:57:24.744Z,12.90
2022-08-05T06:00:46.613Z,16.00
2022-08-05T06:04:01.728Z,12.60
2022-08-05T06:07:07.786Z,9.68
2022-08-05T06:10:15.134Z,12.00
2022-08-05T06:13:19.801Z,10.73
2022-08-05T06:16:32.754Z,9.90
2022-08-05T06:19:40.937Z,9.73
2022-08-05T06:22:49.396Z,11.75
2022-08-05T06:26:13.255Z,10.70
2022-08-05T06:29:25.423Z,7.80
2022-08-05T06:32:44.515Z,11.57
2022-08-05T06:36:03.485Z,9.73
2022-08-05T06:39:12.421Z,19.50
2022-08-05T06:42:17.395Z,9.07
2022-08-05T06:45:44.038Z,17.15
2022-08-05T06:48:56.813Z,12.25
2022-08-05T06:52:03.717Z,16.48
2022-08-05T06:55:08.242Z,8.07
2022-08-05T06:58:20.105Z,10.70
2022-08-05T07:01:34.433Z,8.73
2022-08-05T07:04:38.604Z,10.65
2022-08-05T07:07:45.190Z,12.63
2022-08-05T07:10:52.865Z,9.43
2022-08-05T07:14:28.890Z,14.00
2022-08-05T07:18:00.090Z,13.30
2022-08-05T07:20:58.915Z,11.60
2022-08-05T07:24:11.383Z,9.63
2022-08-05T07:27:15.460Z,15.20
2022-08-05T07:30:25.542Z,13.52
2022-08-05T07:33:36.707Z,11.13
2022-08-05T07:36:42.117Z,11.38
2022-08-05T07:40:04.215Z,9.30
2022-08-05T07:43:20.371Z,9.85
2022-08-05T07:46:27.454Z,9.25
2022-08-05T07:49:34.222Z,12.50
2022-08-05T07:52:48.069Z,13.02
2022-08-05T07:56:06.395Z,7.88
2022-08-05T07:59:16.377Z,9.38
2022-08-05T08:02:26.495Z,11.88
2022-08-05T08:05:39.496Z,7.35
2022-08-05T08:08:44.376Z,9.98
2022-08-05T08:11:58.920Z,10.55
2022-08-05T08:15:14.136Z,9.55
2022-08-05T08:18:20.827Z,13.50
2022-08-05T08:21:24.786Z,10.88
2022-08-05T08:24:51.449Z,10.40
2022-08-05T08:27:55.164Z,9.77
2022-08-05T08:30:59.614Z,10.82
2022-08-05T08:34:04.992Z,10.50
2022-08-05T08:37:09.508Z,13.50
2022-08-05T08:40:13.789Z,12.82
2022-08-05T08:45:23.704Z,13.10
2022-08-05T08:46:48.193Z,13.80
2022-08-05T08:50:22.509Z,11.63
2022-08-05T08:53:19.189Z,16.55
2022-08-05T08:56:27.073Z,10.82
2022-08-05T08:59:33.417Z,9.45
2022-08-05T09:02:38.779Z,10.25
2022-08-05T09:06:08.901Z,14.18
2022-08-05T09:09:07.914Z,6.28
2022-08-05T09:12:20.807Z,14.38
2022-08-05T09:15:32.120Z,12.30
2022-08-05T09:18:43.845Z,12.45
2022-08-05T09:22:17.512Z,7.60
2022-08-05T09:25:24.275Z,11.88
2022-08-05T09:28:43.905Z,11.57
2022-08-05T09:32:42.978Z,6.75
2022-08-05T09:35:30.144Z,12.93
2022-08-05T09:38:34.286Z,11.13
2022-08-05T09:41:59.770Z,7.55
2022-08-05T09:46:04.821Z,8.85
2022-08-05T09:48:34.401Z,7.82
2022-08-05T09:51:39.877Z,10.77
2022-08-05T09:54:58.832Z,12.75
2022-08-05T09:58:12.740Z,8.90
2022-08-05T10:01:22.522Z,11.23
2022-08-05T10:04:39.671Z,11.48
2022-08-05T10:08:35.379Z,13.10
2022-08-05T10:11:18.099Z,10.65
2022-08-05T10:14:24.504Z,10.90
2022-08-05T10:17:37.921Z,11.75
2022-08-05T10:20:50.053Z,8.40
2022-08-05T10:23:59.502Z,13.73
2022-08-05T10:27:04.977Z,8.73
2022-08-05T10:31:19.958Z,9.00
2022-08-05T10:33:36.171Z,10.73
2022-08-05T10:36:41.863Z,8.07
2022-08-05T10:39:59.322Z,8.38
2022-08-05T10:43:36.470Z,7.45
2022-08-05T10:46:50.692Z,9.52
2022-08-05T10:50:20.568Z,8.27
2022-08-05T10:53:55.972Z,9.85
2022-08-05T10:57:02.523Z,10.52
2022-08-05T11:00:24.044Z,9.02
2022-08-05T11:03:29.234Z,8.80
2022-08-05T11:06:35.300Z,7.32
2022-08-05T11:09:46.591Z,10.93
2022-08-05T11:12:55.173Z,12.05
2022-08-05T11:16:23.238Z,10.13
2022-08-05T11:20:17.095Z,11.90
2022-08-05T11:24:02.752Z,7.82
2022-08-05T11:27:51.116Z,7.13
2022-08-05T11:30:58.217Z,13.07
2022-08-05T11:34:05.735Z,9.10
2022-08-05T11:38:29.840Z,13.35
2022-08-05T11:44:52.766Z,9.05
2022-08-05T11:47:57.931Z,11.00
2022-08-05T11:51:02.798Z,8.48
2022-08-05T11:54:07.849Z,8.88
2022-08-05T11:57:24.817Z,7.68
2022-08-05T12:00:31.221Z,8.00
2022-08-05T12:03:55.520Z,8.15
2022-08-05T12:07:00.913Z,8.18
2022-08-05T12:10:09.407Z,11.88
2022-08-05T12:13:27.855Z,7.72
2022-08-05T12:16:45.499Z,8.18
2022-08-05T12:20:26.718Z,8.20
2022-08-05T12:23:17.652Z,8.50
2022-08-05T12:26:21.561Z,10.05
2022-08-05T12:29:29.116Z,7.68
2022-08-05T12:32:50.683Z,8.18
2022-08-05T12:35:58.184Z,10.02
2022-08-05T12:39:05.517Z,7.55
2022-08-05T12:42:16.426Z,10.63
2022-08-05T12:45:22.141Z,5.43
2022-08-05T12:48:45.202Z,7.75
2022-08-05T12:52:13.049Z,8.02
2022-08-05T12:55:26.646Z,7.47
2022-08-05T12:58:49.932Z,8.68
2022-08-05T13:02:07.902Z,11.95
2022-08-05T13:05:14.453Z,7.95
2022-08-05T13:08:19.245Z,9.45
2022-08-05T13:12:02.943Z,9.57
2022-08-05T13:15:05.682Z,7.53
2022-08-05T13:18:12.228Z,10.27
2022-08-05T13:21:23.810Z,10.90
2022-08-05T13:24:51.256Z,11.23
2022-08-05T13:27:57.629Z,9.88
2022-08-05T13:31:03.337Z,15.98
2022-08-05T13:34:22.109Z,8.70
2022-08-05T13:37:34.411Z,5.82
2022-08-05T13:40:50.040Z,11.55
2022-08-05T13:43:56.634Z,13.30
2022-08-05T13:47:05.172Z,8.07
2022-08-05T13:50:16.646Z,5.32
2022-08-05T13:53:20.945Z,5.63
2022-08-05T13:56:25.576Z,9.45
2022-08-05T13:59:30.723Z,3.88
2022-08-05T14:02:35.200Z,5.00
2022-08-05T14:06:04.895Z,4.18
2022-08-05T14:09:08.381Z,4.68
2022-08-05T14:12:17.466Z,8.32
2022-08-05T14:16:08.191Z,7.13
2022-08-05T14:18:46.587Z,3.38
2022-08-05T14:22:08.526Z,5.03
2022-08-05T14:25:21.933Z,5.85
2022-08-05T14:28:28.497Z,3.67
2022-08-05T14:32:02.672Z,4.95
2022-08-05T14:34:57.729Z,5.53
2022-08-05T14:38:01.999Z,4.40
2022-08-05T14:41:07.468Z,3.85
2022-08-05T14:44:20.612Z,3.67
2022-08-05T14:48:03.210Z,4.72
2022-08-05T14:50:50.272Z,7.60
2022-08-05T14:54:26.390Z,5.10
2022-08-05T14:57:19.165Z,4.70
2022-08-05T15:00:27.756Z,3.90
2022-08-05T15:03:33.728Z,4.88
2022-08-05T15:06:38.548Z,6.50
2022-08-05T15:09:52.463Z,5.80
2022-08-05T15:13:03.923Z,7.20
2022-08-05T15:16:11.011Z,6.15
2022-08-05T15:19:23.855Z,10.35
2022-08-05T15:22:28.700Z,9.32
2022-08-05T15:25:51.966Z,20.48
2022-08-05T15:28:57.580Z,23.10
2022-08-05T15:32:03.372Z,23.70
2022-08-05T15:35:12.523Z,23.63
2022-08-05T15:38:35.350Z,15.88
2022-08-05T15:45:03.563Z,24.50
2022-08-05T15:48:10.564Z,15.70
2022-08-05T15:51:22.459Z,17.77
2022-08-05T15:54:46.517Z,14.98
2022-08-05T15:57:50.599Z,18.02
2022-08-05T16:01:04.434Z,18.38
2022-08-05T16:04:18.802Z,16.70
2022-08-05T16:07:23.057Z,17.55
2022-08-05T16:10:27.375Z,18.58
2022-08-05T16:13:34.133Z,14.63
2022-08-05T16:16:39.350Z,19.48
2022-08-05T16:20:03.489Z,11.20
2022-08-05T16:23:08.619Z,13.38
2022-08-05T16:26:13.306Z,15.35
2022-08-05T16:29:18.221Z,13.20
2022-08-05T16:32:29.350Z,12.27
2022-08-05T16:35:43.075Z,13.23
2022-08-05T16:38:54.827Z,16.15
2022-08-05T16:42:14.415Z,17.27
2022-08-05T16:46:07.489Z,16.83
2022-08-05T16:48:47.651Z,12.98
2022-08-05T16:51:56.945Z,13.15
2022-08-05T16:55:01.074Z,11.32
2022-08-05T16:58:08.627Z,9.70
2022-08-05T17:01:13.338Z,14.95
2022-08-05T17:04:18.768Z,13.15
2022-08-05T17:07:43.754Z,12.88
2022-08-05T17:10:47.145Z,11.68
2022-08-05T17:14:00.379Z,8.82
2022-08-05T17:17:15.037Z,9.55
2022-08-05T17:20:19.664Z,8.90
2022-08-05T17:24:03.623Z,9.60
2022-08-05T17:26:48.335Z,8.80
2022-08-05T17:29:59.648Z,7.75
2022-08-05T17:33:07.753Z,9.95
2022-08-05T17:36:33.722Z,9.45
2022-08-05T17:39:37.669Z,7.25
2022-08-05T17:42:50.768Z,7.07
2022-08-05T17:45:56.654Z,7.70
2022-08-05T17:49:00.838Z,8.82
2022-08-05T17:52:04.705Z,5.47
2022-08-05T17:55:11.790Z,7.57
2022-08-05T17:58:17.626Z,8.10
2022-08-05T18:01:49.380Z,5.25
2022-08-05T18:04:55.161Z,5.63
2022-08-05T18:07:59.257Z,4.57
2022-08-05T18:11:04.029Z,6.20
2022-08-05T18:14:13.584Z,7.85
2022-08-05T18:18:00.630Z,6.53
2022-08-05T18:20:48.839Z,5.47
2022-08-05T18:23:54.427Z,6.32
2022-08-05T18:26:58.846Z,4.68
2022-08-05T18:30:03.459Z,6.25
2022-08-05T18:33:08.608Z,5.75
2022-08-05T18:36:19.193Z,6.22
2022-08-05T18:40:34.344Z,5.53
2022-08-05T18:42:47.820Z,5.07
2022-08-05T18:45:52.018Z,4.75
2022-08-05T18:49:20.289Z,4.60
2022-08-05T18:52:35.689Z,6.45
2022-08-05T18:55:40.617Z,4.78
2022-08-05T18:58:44.645Z,4.38
2022-08-05T19:01:56.983Z,7.50
2022-08-05T19:06:06.354Z,6.65
2022-08-05T19:08:30.798Z,5.03
2022-08-05T19:11:58.654Z,4.40
2022-08-05T19:15:02.701Z,4.13
2022-08-05T19:18:09.314Z,5.43
2022-08-05T19:21:15.644Z,6.15
2022-08-05T19:24:34.390Z,5.82
2022-08-05T19:27:39.381Z,5.00
2022-08-05T19:30:48.798Z,4.25
2022-08-05T19:33:56.643Z,5.03
2022-08-05T19:37:01.261Z,4.80
2022-08-05T19:40:08.165Z,2.78
2022-08-05T19:44:03.849Z,4.10
2022-08-05T19:46:39.546Z,2.85
2022-08-05T19:49:46.094Z,4.32
2022-08-05T19:52:50.609Z,4.65
2022-08-05T19:56:15.367Z,4.85
2022-08-05T19:59:51.638Z,6.45
2022-08-05T20:02:43.203Z,5.00
2022-08-05T20:05:51.276Z,3.58
2022-08-05T20:08:56.013Z,6.53
2022-08-05T20:11:59.978Z,5.70
2022-08-05T20:15:08.735Z,5.25
2022-08-05T20:18:33.889Z,3.50
2022-08-05T20:21:38.341Z,4.00
2022-08-05T20:24:42.712Z,4.22
2022-08-05T20:27:47.967Z,5.53
2022-08-05T20:30:54.246Z,5.32
2022-08-05T20:33:58.258Z,6.55
2022-08-05T20:37:02.199Z,6.70
2022-08-05T20:40:09.049Z,5.80
2022-08-05T20:43:14.411Z,10.20
2022-08-05T20:46:25.215Z,8.63
2022-08-05T20:49:33.212Z,6.47
2022-08-05T20:52:43.905Z,7.03
2022-08-05T20:56:07.399Z,4.03
2022-08-05T20:59:19.205Z,4.35
2022-08-05T21:02:30.433Z,7.25
2022-08-05T21:05:53.697Z,6.13
2022-08-05T21:08:58.824Z,5.13
2022-08-05T21:12:10.553Z,6.30
2022-08-05T21:15:17.425Z,4.57
2022-08-05T21:18:21.565Z,5.65
2022-08-05T21:21:39.536Z,6.50
2022-08-05T21:24:51.577Z,7.20
2022-08-05T21:27:56.494Z,4.97
2022-08-05T21:31:01.550Z,5.72
2022-08-05T21:34:05.661Z,6.57
2022-08-05T21:37:11.274Z,2.88
2022-08-05T21:40:16.956Z,7.38
2022-08-05T21:43:24.586Z,5.65
2022-08-05T21:46:29.688Z,5.03
2022-08-05T21:50:00.300Z,4.32
2022-08-05T21:52:58.722Z,4.95
2022-08-05T21:56:16.950Z,5.20
2022-08-05T21:59:23.884Z,6.63
2022-08-05T22:02:29.407Z,5.40
2022-08-05T22:05:48.269Z,4.00
2022-08-05T22:08:53.398Z,9.43
2022-08-05T22:11:59.782Z,4.32
2022-08-05T22:15:10.251Z,4.68
2022-08-05T22:18:20.594Z,5.10
2022-08-05T22:21:29.850Z,3.70
2022-08-05T22:24:55.690Z,6.60
2022-08-05T22:28:08.892Z,4.20
2022-08-05T22:31:15.466Z,9.10
2022-08-05T22:34:25.603Z,6.18
2022-08-05T22:37:58.859Z,4.45
2022-08-05T22:40:57.418Z,6.53
2022-08-05T22:44:01.488Z,6.25
2022-08-05T22:47:06.522Z,5.72
2022-08-05T22:50:19.483Z,6.78
2022-08-05T22:53:25.836Z,6.30
2022-08-05T22:56:39.981Z,5.50
2022-08-05T22:59:51.902Z,6.25
2022-08-05T23:02:58.652Z,4.82
2022-08-05T23:06:02.595Z,5.63
2022-08-05T23:09:28.059Z,7.70
2022-08-05T23:12:32.612Z,8.90
2022-08-05T23:15:37.543Z,8.27
2022-08-05T23:18:43.675Z,5.47
2022-08-05T23:21:48.770Z,7.55
2022-08-05T23:24:53.619Z,6.90
2022-08-05T23:28:00.715Z,5.50
2022-08-05T23:31:16.542Z,6.85
2022-08-05T23:34:24.516Z,6.45
2022-08-05T23:37:34.309Z,6.18
2022-08-05T23:40:40.691Z,6.10
2022-08-05T23:44:06.385Z,7.38
2022-08-05T23:47:15.278Z,8.20
2022-08-05T23:50:20.287Z,6.68
2022-08-05T23:53:24.290Z,6.45
2022-08-05T23:56:32.304Z,6.97
